首页
METAR-TAF:

METAR-TAF

机场 :

弗利辛恩, 荷兰

纬度: 51-27N, 经度: 3-36E, 海拔: 10米

当前天气观测

该预报发布于41分钟前的08:25 UTC
风速11节,风向南转西南,在西南之间变化
温度 12°C
湿度 94%
气压 1009 hPa
能见度10公里或以上

METAR: EHFS 170825Z AUTO 21011KT 170V230 9999 FEW013/// SCT028/// OVC032/// 12/11 Q1009 REDZ W///H///

时间: 11:06 (09:06 UTC)


TAF: 丢失

超过4000个机场的气象观测和天气预报(METAR&TAF报告)。

可查询的气象台以黄色和红色小点在地图上表示。

将鼠标移到小点上方,可查看气象台名称。

然后点击查看天气观测和预报。

如需切换地图:点击带黑十字的绿色按钮放大地图;点击带横线的绿色按钮缩小地图;或者点击绿色箭头查看邻近地区的地图。


METAR-TAF: